createdAt,value
2018-11-04T00:02:00.913Z,22.07
2018-11-04T00:04:28.142Z,22.10
2018-11-04T00:06:55.346Z,24.50
2018-11-04T00:09:22.538Z,20.30
2018-11-04T00:11:49.747Z,22.60
2018-11-04T00:14:16.946Z,22.63
2018-11-04T00:16:44.113Z,21.30
2018-11-04T00:19:11.435Z,19.90
2018-11-04T00:21:38.656Z,20.37
2018-11-04T00:24:05.929Z,20.37
2018-11-04T00:26:33.245Z,19.70
2018-11-04T00:29:00.471Z,21.20
2018-11-04T00:31:27.624Z,21.53
2018-11-04T00:33:54.827Z,21.07
2018-11-04T00:36:22.036Z,20.63
2018-11-04T00:38:49.245Z,21.60
2018-11-04T00:41:16.402Z,20.53
2018-11-04T00:43:43.591Z,20.20
2018-11-04T00:46:10.757Z,18.60
2018-11-04T00:48:37.946Z,18.53
2018-11-04T00:51:05.259Z,22.30
2018-11-04T00:53:32.463Z,20.00
2018-11-04T00:55:59.706Z,18.83
2018-11-04T00:58:26.939Z,17.47
2018-11-04T01:00:54.521Z,16.07
2018-11-04T01:03:21.737Z,15.70
2018-11-04T01:05:49.008Z,16.47
2018-11-04T01:08:16.260Z,16.00
2018-11-04T01:10:43.497Z,15.00
2018-11-04T01:13:10.698Z,12.70
2018-11-04T01:15:37.913Z,14.70
2018-11-04T01:18:05.082Z,13.07
2018-11-04T01:20:32.295Z,12.40
2018-11-04T01:22:59.471Z,12.07
2018-11-04T01:25:26.686Z,12.60
2018-11-04T01:27:53.900Z,11.20
2018-11-04T01:30:21.169Z,12.47
2018-11-04T01:32:48.451Z,11.97
2018-11-04T01:35:15.657Z,11.20
2018-11-04T01:37:42.860Z,10.90
2018-11-04T01:40:10.527Z,12.53
2018-11-04T01:42:38.173Z,11.73
2018-11-04T01:45:06.688Z,11.57
2018-11-04T01:47:33.884Z,11.67
2018-11-04T01:50:01.198Z,12.20
2018-11-04T01:52:28.359Z,12.00
2018-11-04T01:54:55.538Z,11.10
2018-11-04T01:57:22.740Z,11.63
2018-11-04T01:59:49.940Z,12.23
2018-11-04T02:02:17.123Z,11.07
2018-11-04T02:04:44.376Z,12.07
2018-11-04T02:07:11.600Z,11.47
2018-11-04T02:09:38.830Z,12.57
2018-11-04T02:12:06.158Z,12.73
2018-11-04T02:14:33.379Z,11.37
2018-11-04T02:17:00.585Z,11.30
2018-11-04T02:19:27.759Z,11.23
2018-11-04T02:21:54.954Z,11.07
2018-11-04T02:24:22.212Z,12.40
2018-11-04T02:26:49.420Z,9.70
2018-11-04T02:29:16.585Z,11.57
2018-11-04T02:31:43.776Z,11.60
2018-11-04T02:34:10.981Z,11.00
2018-11-04T02:36:38.190Z,10.30
2018-11-04T02:39:06.101Z,10.20
2018-11-04T02:41:33.344Z,10.70
2018-11-04T02:44:00.550Z,10.40
2018-11-04T02:46:27.697Z,9.60
2018-11-04T02:48:54.985Z,9.87
2018-11-04T02:51:22.202Z,10.37
2018-11-04T02:53:49.348Z,11.00
2018-11-04T02:56:16.481Z,11.37
2018-11-04T02:58:43.679Z,10.40
2018-11-04T03:01:10.881Z,12.33
2018-11-04T03:03:38.110Z,10.80
2018-11-04T03:06:05.430Z,9.83
2018-11-04T03:08:32.574Z,11.10
2018-11-04T03:10:59.793Z,11.03
2018-11-04T03:13:26.989Z,10.17
2018-11-04T03:15:54.168Z,11.93
2018-11-04T03:18:21.341Z,10.07
2018-11-04T03:20:48.510Z,10.77
2018-11-04T03:23:15.781Z,10.43
2018-11-04T03:25:43.012Z,10.60
2018-11-04T03:28:10.525Z,10.13
2018-11-04T03:30:38.169Z,10.57
2018-11-04T03:33:05.382Z,9.70
2018-11-04T03:35:32.581Z,9.20
2018-11-04T03:37:59.779Z,9.70
2018-11-04T03:40:27.235Z,10.63
2018-11-04T03:42:54.420Z,10.10
2018-11-04T03:45:21.646Z,10.33
2018-11-04T03:47:48.844Z,9.50
2018-11-04T03:50:16.006Z,8.80
2018-11-04T03:52:43.166Z,10.37
2018-11-04T03:55:10.351Z,8.70
2018-11-04T03:57:37.503Z,9.37
2018-11-04T04:00:05.328Z,9.50
2018-11-04T04:02:32.447Z,10.17
2018-11-04T04:04:59.587Z,9.10
2018-11-04T04:07:26.748Z,10.03
2018-11-04T04:09:53.869Z,9.60
2018-11-04T04:12:21.017Z,8.47
2018-11-04T04:14:48.196Z,9.70
2018-11-04T04:17:15.351Z,8.90
2018-11-04T04:19:42.533Z,8.50
2018-11-04T04:22:09.718Z,10.03
2018-11-04T04:24:36.921Z,9.60
2018-11-04T04:27:04.299Z,7.70
2018-11-04T04:29:31.532Z,8.40
2018-11-04T04:31:58.727Z,9.10
2018-11-04T04:34:25.905Z,9.03
2018-11-04T04:36:53.080Z,9.10
2018-11-04T04:39:20.218Z,9.60
2018-11-04T04:41:48.234Z,9.83
2018-11-04T04:44:15.432Z,10.40
2018-11-04T04:46:42.584Z,9.40
2018-11-04T04:49:09.800Z,8.90
2018-11-04T04:51:37.064Z,11.47
2018-11-04T04:54:04.848Z,9.77
2018-11-04T04:56:32.003Z,10.87
2018-11-04T04:58:59.209Z,9.90
2018-11-04T05:01:26.368Z,10.07
2018-11-04T05:03:53.529Z,10.17
2018-11-04T05:06:20.620Z,10.03
2018-11-04T05:08:47.858Z,9.80
2018-11-04T05:11:15.111Z,10.73
2018-11-04T05:13:42.333Z,9.87
2018-11-04T05:16:09.537Z,9.60
2018-11-04T05:18:36.685Z,9.20
2018-11-04T05:21:03.944Z,9.00
2018-11-04T05:23:31.131Z,8.93
2018-11-04T05:25:58.277Z,9.40
2018-11-04T05:28:25.488Z,9.17
2018-11-04T05:30:52.668Z,9.27
2018-11-04T05:33:19.867Z,9.37
2018-11-04T05:35:47.040Z,10.20
2018-11-04T05:38:14.223Z,11.10
2018-11-04T05:40:41.383Z,9.50
2018-11-04T05:43:08.568Z,9.47
2018-11-04T05:45:35.714Z,8.80
2018-11-04T05:48:02.873Z,9.20
2018-11-04T05:50:30.083Z,9.67
2018-11-04T05:52:57.240Z,9.37
2018-11-04T05:55:24.417Z,10.40
2018-11-04T05:57:51.573Z,10.27
2018-11-04T06:00:18.704Z,9.30
2018-11-04T06:02:45.879Z,9.83
2018-11-04T06:05:13.044Z,10.30
2018-11-04T06:07:40.338Z,9.10
2018-11-04T06:10:07.564Z,9.03
2018-11-04T06:12:35.048Z,9.23
2018-11-04T06:15:02.424Z,7.50
2018-11-04T06:17:29.536Z,9.43
2018-11-04T06:19:56.752Z,9.40
2018-11-04T06:22:23.893Z,8.67
2018-11-04T06:24:51.090Z,9.67
2018-11-04T06:27:18.369Z,8.63
2018-11-04T06:29:45.529Z,9.20
2018-11-04T06:32:12.733Z,9.47
2018-11-04T06:34:40.062Z,8.87
2018-11-04T06:37:07.204Z,9.33
2018-11-04T06:39:34.383Z,9.37
2018-11-04T06:42:01.535Z,10.27
2018-11-04T06:44:28.738Z,8.30
2018-11-04T06:46:55.878Z,10.57
2018-11-04T06:49:23.081Z,9.90
2018-11-04T06:51:50.269Z,11.03
2018-11-04T06:54:17.448Z,11.43
2018-11-04T06:56:44.639Z,10.47
2018-11-04T06:59:11.811Z,8.87
2018-11-04T07:01:38.949Z,9.47
2018-11-04T07:04:20.405Z,9.03
2018-11-04T07:06:48.174Z,8.13
2018-11-04T07:09:15.639Z,8.00
2018-11-04T07:11:43.195Z,8.40
2018-11-04T07:14:10.372Z,8.03
2018-11-04T07:16:37.597Z,9.03
2018-11-04T07:19:04.824Z,8.57
2018-11-04T07:21:32.070Z,9.40
2018-11-04T07:23:59.224Z,9.80
2018-11-04T07:26:26.357Z,9.57
2018-11-04T07:28:53.548Z,8.73
2018-11-04T07:31:20.730Z,10.00
2018-11-04T07:33:47.900Z,8.07
2018-11-04T07:36:15.119Z,9.70
2018-11-04T07:38:42.315Z,8.67
2018-11-04T07:41:09.544Z,8.97
2018-11-04T07:43:36.775Z,9.40
2018-11-04T07:46:04.336Z,8.57
2018-11-04T07:48:31.498Z,8.40
2018-11-04T07:50:58.704Z,9.50
2018-11-04T07:53:25.837Z,9.03
2018-11-04T07:55:53.017Z,9.30
2018-11-04T07:58:20.187Z,8.60
2018-11-04T08:00:47.385Z,9.77
2018-11-04T08:03:14.546Z,8.10
2018-11-04T08:05:41.673Z,9.33
2018-11-04T08:08:08.820Z,9.57
2018-11-04T08:10:36.008Z,9.13
2018-11-04T08:13:03.154Z,9.60
2018-11-04T08:15:30.386Z,9.17
2018-11-04T08:17:57.616Z,9.67
2018-11-04T08:20:24.813Z,8.50
2018-11-04T08:22:51.980Z,10.30
2018-11-04T08:25:19.153Z,7.37
2018-11-04T08:27:46.432Z,9.00
2018-11-04T08:30:13.515Z,8.43
2018-11-04T08:32:40.704Z,7.97
2018-11-04T08:35:07.910Z,8.00
2018-11-04T08:37:35.103Z,6.53
2018-11-04T08:40:02.709Z,7.67
2018-11-04T08:42:30.260Z,7.47
2018-11-04T08:44:57.441Z,8.40
2018-11-04T08:47:24.636Z,9.40
2018-11-04T08:49:51.769Z,10.47
2018-11-04T08:52:18.948Z,9.40
2018-11-04T08:54:46.139Z,10.37
2018-11-04T08:57:13.634Z,12.03
2018-11-04T08:59:41.049Z,13.70
2018-11-04T09:02:08.226Z,14.17
2018-11-04T09:04:35.343Z,15.73
2018-11-04T09:07:02.556Z,12.43
2018-11-04T09:09:29.726Z,8.77
2018-11-04T09:11:56.941Z,6.83
2018-11-04T09:14:24.177Z,8.07
2018-11-04T09:16:51.312Z,8.07
2018-11-04T09:19:18.490Z,9.17
2018-11-04T09:21:52.575Z,9.23
2018-11-04T09:24:19.666Z,9.13
2018-11-04T09:26:46.874Z,8.50
2018-11-04T09:29:14.170Z,8.53
2018-11-04T09:31:41.339Z,7.50
2018-11-04T09:34:08.511Z,7.83
2018-11-04T09:36:35.810Z,6.90
2018-11-04T09:39:03.725Z,8.00
2018-11-04T09:41:30.861Z,8.30
2018-11-04T09:43:58.052Z,7.63
2018-11-04T09:46:25.225Z,7.57
2018-11-04T09:48:52.432Z,7.50
2018-11-04T09:51:19.553Z,7.27
2018-11-04T09:53:46.748Z,8.20
2018-11-04T09:56:13.972Z,7.37
2018-11-04T09:58:41.135Z,8.77
2018-11-04T10:01:08.298Z,8.57
2018-11-04T10:03:35.472Z,8.33
2018-11-04T10:06:02.645Z,8.20
2018-11-04T10:08:29.841Z,7.47
2018-11-04T10:10:57.054Z,6.87
2018-11-04T10:13:24.318Z,7.90
2018-11-04T10:15:51.425Z,7.83
2018-11-04T10:18:18.596Z,6.70
2018-11-04T10:20:46.117Z,7.83
2018-11-04T10:23:12.978Z,6.23
2018-11-04T10:25:40.184Z,6.87
2018-11-04T10:28:07.359Z,7.10
2018-11-04T10:30:34.541Z,6.87
2018-11-04T10:33:01.773Z,7.23
2018-11-04T10:35:28.962Z,6.10
2018-11-04T10:37:56.139Z,6.80
2018-11-04T10:40:23.472Z,7.10
2018-11-04T10:42:50.698Z,7.03
2018-11-04T10:45:17.905Z,6.63
2018-11-04T10:47:45.085Z,8.67
2018-11-04T10:50:12.833Z,6.50
2018-11-04T10:52:40.011Z,7.10
2018-11-04T10:55:08.105Z,7.00
2018-11-04T10:57:35.392Z,6.90
2018-11-04T11:00:02.677Z,7.00
2018-11-04T11:02:29.926Z,6.43
2018-11-04T11:04:57.146Z,7.17
2018-11-04T11:07:24.348Z,7.03
2018-11-04T11:09:51.583Z,7.90
2018-11-04T11:12:18.777Z,7.50
2018-11-04T11:14:45.969Z,6.87
2018-11-04T11:17:13.092Z,7.77
2018-11-04T11:19:40.285Z,6.83
2018-11-04T11:22:07.447Z,6.20
2018-11-04T11:24:34.667Z,6.80
2018-11-04T11:27:01.815Z,7.40
2018-11-04T11:29:28.997Z,7.10
2018-11-04T11:31:56.188Z,7.20
2018-11-04T11:34:23.373Z,7.10
2018-11-04T11:36:50.489Z,6.57
2018-11-04T11:39:17.629Z,7.00
2018-11-04T11:41:44.864Z,6.47
2018-11-04T11:44:12.089Z,6.67
2018-11-04T11:46:39.423Z,7.27
2018-11-04T11:49:07.101Z,6.67
2018-11-04T11:51:34.240Z,7.90
2018-11-04T11:54:01.475Z,7.40
2018-11-04T11:56:28.651Z,7.73
2018-11-04T11:58:55.909Z,7.30
2018-11-04T12:01:23.133Z,6.60
2018-11-04T12:03:50.332Z,8.10
2018-11-04T12:06:17.504Z,10.50
2018-11-04T12:08:44.718Z,8.93
2018-11-04T12:11:11.855Z,9.80
2018-11-04T12:13:39.019Z,8.57
2018-11-04T12:16:06.349Z,9.00
2018-11-04T12:18:33.532Z,7.77
2018-11-04T12:21:00.775Z,8.30
2018-11-04T12:23:28.008Z,7.10
2018-11-04T12:25:55.177Z,8.00
2018-11-04T12:28:22.349Z,8.60
2018-11-04T12:30:49.465Z,8.00
2018-11-04T12:33:16.608Z,8.57
2018-11-04T12:35:43.724Z,7.67
2018-11-04T12:38:10.905Z,7.97
2018-11-04T12:40:38.081Z,8.33
2018-11-04T12:43:05.295Z,9.63
2018-11-04T12:45:32.520Z,8.00
2018-11-04T12:47:59.644Z,8.17
2018-11-04T12:50:26.829Z,9.03
2018-11-04T12:52:53.973Z,9.50
2018-11-04T12:55:21.150Z,8.93
2018-11-04T12:57:48.338Z,8.97
2018-11-04T13:00:16.253Z,9.47
2018-11-04T13:02:44.276Z,10.27
2018-11-04T13:05:11.499Z,8.20
2018-11-04T13:07:38.738Z,10.13
2018-11-04T13:10:07.809Z,8.23
2018-11-04T13:12:35.277Z,8.53
2018-11-04T13:15:02.771Z,9.37
2018-11-04T13:17:30.007Z,9.20
2018-11-04T13:19:57.577Z,8.83
2018-11-04T13:22:24.772Z,10.20
2018-11-04T13:24:52.094Z,7.90
2018-11-04T13:27:19.260Z,8.97
2018-11-04T13:29:46.508Z,10.43
2018-11-04T13:32:13.772Z,9.60
2018-11-04T13:34:40.960Z,10.23
2018-11-04T13:37:08.093Z,7.80
2018-11-04T13:39:35.328Z,9.47
2018-11-04T13:42:02.545Z,8.83
2018-11-04T13:44:29.748Z,10.30
2018-11-04T13:46:56.966Z,9.57
2018-11-04T13:49:24.341Z,11.03
2018-11-04T13:51:51.437Z,12.73
2018-11-04T13:54:18.598Z,10.90
2018-11-04T13:56:45.779Z,11.87
2018-11-04T13:59:12.978Z,11.10
2018-11-04T14:01:40.264Z,12.33
2018-11-04T14:04:07.442Z,14.10
2018-11-04T14:06:34.894Z,12.30
2018-11-04T14:09:02.189Z,12.97
2018-11-04T14:11:29.415Z,11.90
2018-11-04T14:13:56.662Z,12.60
2018-11-04T14:16:23.871Z,13.37
2018-11-04T14:18:51.069Z,13.53
2018-11-04T14:21:18.270Z,13.83
2018-11-04T14:23:45.576Z,15.70
2018-11-04T14:26:12.713Z,13.20
2018-11-04T14:28:40.182Z,15.53
2018-11-04T14:31:07.487Z,13.77
2018-11-04T14:33:34.624Z,13.57
2018-11-04T14:36:01.780Z,14.10
2018-11-04T14:38:28.949Z,14.23
2018-11-04T14:40:56.179Z,15.17
2018-11-04T14:43:23.405Z,14.10
2018-11-04T14:45:50.675Z,14.97
2018-11-04T14:48:17.791Z,15.77
2018-11-04T14:50:45.359Z,16.87
2018-11-04T14:53:12.495Z,15.50
2018-11-04T14:55:39.685Z,14.80
2018-11-04T14:58:06.866Z,14.73
2018-11-04T15:00:35.608Z,15.43
2018-11-04T15:03:03.792Z,15.20
2018-11-04T15:05:31.048Z,15.77
2018-11-04T15:07:58.191Z,14.83
2018-11-04T15:10:25.344Z,14.83
2018-11-04T15:12:52.541Z,14.03
2018-11-04T15:15:19.754Z,14.83
2018-11-04T15:17:46.959Z,13.93
2018-11-04T15:20:14.149Z,16.60
2018-11-04T15:22:44.432Z,17.03
2018-11-04T15:25:11.701Z,16.53
2018-11-04T15:27:38.909Z,16.77
2018-11-04T15:30:07.248Z,15.73
2018-11-04T15:32:34.427Z,14.50
2018-11-04T15:35:01.636Z,16.37
2018-11-04T15:37:28.885Z,15.83
2018-11-04T15:39:56.048Z,15.07
2018-11-04T15:42:23.240Z,15.23
2018-11-04T15:44:50.477Z,16.97
2018-11-04T15:47:17.721Z,22.67
2018-11-04T15:49:45.072Z,21.60
2018-11-04T15:52:12.302Z,21.17
2018-11-04T15:54:39.512Z,21.93
2018-11-04T15:57:14.748Z,21.77
2018-11-04T15:59:42.403Z,19.77
2018-11-04T16:02:09.743Z,17.63
2018-11-04T16:04:44.551Z,19.57
2018-11-04T16:07:04.431Z,21.87
2018-11-04T16:09:31.637Z,19.90
2018-11-04T16:11:58.884Z,15.70
2018-11-04T16:14:26.131Z,17.27
2018-11-04T16:16:53.328Z,25.10
2018-11-04T16:19:20.590Z,19.73
2018-11-04T16:21:47.895Z,21.30
2018-11-04T16:24:15.196Z,18.40
2018-11-04T16:26:42.453Z,20.17
2018-11-04T16:29:09.645Z,20.00
2018-11-04T16:31:36.924Z,19.40
2018-11-04T16:34:04.219Z,20.50
2018-11-04T16:36:31.568Z,16.00
2018-11-04T16:38:59.408Z,16.63
2018-11-04T16:41:26.603Z,16.73
2018-11-04T16:43:53.896Z,16.97
2018-11-04T16:46:21.162Z,18.07
2018-11-04T16:48:48.435Z,19.40
2018-11-04T16:51:15.736Z,18.33
2018-11-04T16:53:42.955Z,18.03
2018-11-04T16:56:10.379Z,15.50
2018-11-04T16:58:37.534Z,14.33
2018-11-04T17:01:04.943Z,19.07
2018-11-04T17:03:32.116Z,15.27
2018-11-04T17:05:59.325Z,15.93
2018-11-04T17:08:26.579Z,15.90
2018-11-04T17:10:53.883Z,17.27
2018-11-04T17:13:21.109Z,16.97
2018-11-04T17:15:48.396Z,16.47
2018-11-04T17:18:15.831Z,15.60
2018-11-04T17:20:42.937Z,15.77
2018-11-04T17:23:10.191Z,14.60
2018-11-04T17:25:37.386Z,17.10
2018-11-04T17:28:05.096Z,17.47
2018-11-04T17:30:32.368Z,16.93
2018-11-04T17:32:59.595Z,20.23
2018-11-04T17:35:26.884Z,20.30
2018-11-04T17:37:54.186Z,16.00
2018-11-04T17:40:21.437Z,18.57
2018-11-04T17:42:48.679Z,19.00
2018-11-04T17:45:16.469Z,17.70
2018-11-04T17:47:44.223Z,16.90
2018-11-04T17:50:13.685Z,17.80
2018-11-04T17:52:41.022Z,15.40
2018-11-04T17:55:08.807Z,17.97
2018-11-04T17:57:43.157Z,18.23
2018-11-04T18:00:10.873Z,17.97
2018-11-04T18:02:38.525Z,18.57
2018-11-04T18:05:06.408Z,16.30
2018-11-04T18:07:33.650Z,18.43
2018-11-04T18:10:00.917Z,16.40
2018-11-04T18:12:28.133Z,16.47
2018-11-04T18:14:55.351Z,16.93
2018-11-04T18:17:22.565Z,17.00
2018-11-04T18:19:49.816Z,16.13
2018-11-04T18:22:17.009Z,17.27
2018-11-04T18:24:44.348Z,18.47
2018-11-04T18:27:11.619Z,16.67
2018-11-04T18:29:38.878Z,15.83
2018-11-04T18:32:06.822Z,15.40
2018-11-04T18:34:34.072Z,16.63
2018-11-04T18:37:01.356Z,17.70
2018-11-04T18:39:28.665Z,15.60
2018-11-04T18:41:55.912Z,16.10
2018-11-04T18:44:23.099Z,15.73
2018-11-04T18:46:50.282Z,14.97
2018-11-04T18:49:17.492Z,16.30
2018-11-04T18:51:44.735Z,16.47
2018-11-04T18:54:11.924Z,16.93
2018-11-04T18:56:39.128Z,16.93
2018-11-04T18:59:06.417Z,15.20
2018-11-04T19:01:33.610Z,17.37
2018-11-04T19:04:00.779Z,16.77
2018-11-04T19:06:27.967Z,15.37
2018-11-04T19:08:55.212Z,15.03
2018-11-04T19:11:22.540Z,16.93
2018-11-04T19:13:49.721Z,18.00
2018-11-04T19:16:16.926Z,16.70
2018-11-04T19:18:44.226Z,16.00
2018-11-04T19:21:11.411Z,17.13
2018-11-04T19:23:38.583Z,18.13
2018-11-04T19:26:05.809Z,16.40
2018-11-04T19:28:32.991Z,19.47
2018-11-04T19:31:00.238Z,19.70
2018-11-04T19:33:27.443Z,17.30
2018-11-04T19:35:54.682Z,19.10
2018-11-04T19:38:21.850Z,17.13
2018-11-04T19:40:49.055Z,19.13
2018-11-04T19:43:17.072Z,18.50
2018-11-04T19:45:44.266Z,19.10
2018-11-04T19:48:11.577Z,19.00
2018-11-04T19:50:38.762Z,17.60
2018-11-04T19:53:06.114Z,17.60
2018-11-04T19:55:33.297Z,19.10
2018-11-04T19:58:00.521Z,18.27
2018-11-04T20:00:27.770Z,17.10
2018-11-04T20:02:55.006Z,17.93
2018-11-04T20:05:22.330Z,16.63
2018-11-04T20:07:49.420Z,18.20
2018-11-04T20:10:18.073Z,17.70
2018-11-04T20:12:50.974Z,16.97
2018-11-04T20:15:18.245Z,18.87
2018-11-04T20:17:46.307Z,18.97
2018-11-04T20:20:15.587Z,19.07
2018-11-04T20:22:42.757Z,21.87
2018-11-04T20:25:15.528Z,22.00
2018-11-04T20:27:42.733Z,23.80
2018-11-04T20:30:11.253Z,23.93
2018-11-04T20:32:44.393Z,23.03
2018-11-04T20:35:11.758Z,25.53
2018-11-04T20:37:39.017Z,25.13
2018-11-04T20:40:11.973Z,24.27
2018-11-04T20:42:39.170Z,27.43
2018-11-04T20:45:06.599Z,24.87
2018-11-04T20:47:39.407Z,24.33
2018-11-04T20:50:12.439Z,24.60
2018-11-04T20:52:39.703Z,27.90
2018-11-04T20:55:06.977Z,24.10
2018-11-04T20:57:57.304Z,25.93
2018-11-04T21:00:24.453Z,24.27
2018-11-04T21:02:51.625Z,27.47
2018-11-04T21:05:18.793Z,27.20
2018-11-04T21:07:45.984Z,27.43
2018-11-04T21:10:13.269Z,26.90
2018-11-04T21:12:40.497Z,27.07
2018-11-04T21:15:07.945Z,31.60
2018-11-04T21:17:35.152Z,28.37
2018-11-04T21:20:02.460Z,28.13
2018-11-04T21:22:29.669Z,27.73
2018-11-04T21:24:56.953Z,28.80
2018-11-04T21:27:24.261Z,29.10
2018-11-04T21:29:51.496Z,26.90
2018-11-04T21:32:18.652Z,31.30
2018-11-04T21:34:46.145Z,27.77
2018-11-04T21:37:13.327Z,28.90
2018-11-04T21:39:40.530Z,29.13
2018-11-04T21:42:07.765Z,31.10
2018-11-04T21:44:34.940Z,28.30
2018-11-04T21:47:02.021Z,28.27
2018-11-04T21:49:29.213Z,29.50
2018-11-04T21:51:56.503Z,31.40
2018-11-04T21:54:23.776Z,29.60
2018-11-04T21:56:50.913Z,30.80
2018-11-04T21:59:18.068Z,27.07
2018-11-04T22:01:45.256Z,29.03
2018-11-04T22:04:12.499Z,29.30
2018-11-04T22:06:39.597Z,29.63
2018-11-04T22:09:07.549Z,29.37
2018-11-04T22:11:34.713Z,28.10
2018-11-04T22:14:02.034Z,27.90
2018-11-04T22:16:29.112Z,30.50
2018-11-04T22:18:56.330Z,28.30
2018-11-04T22:21:23.532Z,31.20
2018-11-04T22:23:50.685Z,30.13
2018-11-04T22:26:17.915Z,28.87
2018-11-04T22:28:45.053Z,27.80
2018-11-04T22:31:12.207Z,32.77
2018-11-04T22:33:39.356Z,32.70
2018-11-04T22:36:06.596Z,32.40
2018-11-04T22:38:33.759Z,30.63
2018-11-04T22:41:00.972Z,28.90
2018-11-04T22:43:28.166Z,37.50
2018-11-04T22:45:55.421Z,32.87
2018-11-04T22:48:22.578Z,33.77
2018-11-04T22:50:49.740Z,32.27
2018-11-04T22:53:16.874Z,25.83
2018-11-04T22:55:44.063Z,27.33
2018-11-04T22:58:11.201Z,29.80
2018-11-04T23:00:44.655Z,31.07
2018-11-04T23:03:11.998Z,31.10
2018-11-04T23:05:39.196Z,33.27
2018-11-04T23:08:06.816Z,33.30
2018-11-04T23:10:34.067Z,28.30
2018-11-04T23:13:01.230Z,26.50
2018-11-04T23:15:28.461Z,28.80
2018-11-04T23:17:55.634Z,32.83
2018-11-04T23:20:22.827Z,30.83
2018-11-04T23:22:49.983Z,32.00
2018-11-04T23:25:17.187Z,28.17
2018-11-04T23:27:44.378Z,29.40
2018-11-04T23:30:13.651Z,29.23
2018-11-04T23:32:40.979Z,29.77
2018-11-04T23:35:09.103Z,27.60
2018-11-04T23:37:36.263Z,29.80
2018-11-04T23:40:03.939Z,27.47
2018-11-04T23:42:31.162Z,27.97
2018-11-04T23:44:58.348Z,26.80
2018-11-04T23:47:25.597Z,28.00
2018-11-04T23:49:52.759Z,26.23
2018-11-04T23:52:19.980Z,26.73
2018-11-04T23:54:47.141Z,24.47
2018-11-04T23:57:14.320Z,28.30
2018-11-04T23:59:41.506Z,24.10
